KHVR/HVR METAR and TAF weather

Enter ICAO airport designator
Station Type Date Time Source
KHVR METAR 2024/04/23 04:53 UTC NOAA

KHVR 230453Z AUTO 22004KT 10SM FEW100 03/M05 A2995 RMK AO2 SLP151 T00331050


Station Type Date Time Source
KHVR Decoded METAR 2024/04/23 04:53 UTC NOAA

HAVRE CITY-COUNTY AIRPORT, MT, United States (KHVR) 48-33N 109-46W 787M
Apr 23, 2024 - 12:53 AM EDT / 2024.04.23 0453 UTC
Wind: from the SW (220 degrees) at 5 MPH (4 KT):0
Visibility: 10 mile(s):0
Sky conditions: mostly clear
Temperature: 37.9 F (3.3 C)
Dew Point: 23.0 F (-5.0 C)
Relative Humidity: 54%
Pressure (altimeter): 29.95 in. Hg (1014 hPa)
ob: KHVR 230453Z AUTO 22004KT 10SM FEW100 03/M05 A2995 RMK AO2 SLP151 T00331050
cycle: 5

Station Type Date Time Source
KHVR TAF 2024/04/22 18:22 UTC NOAA